sensor_id;sensor_type;location;lat;lon;timestamp;temperature;humidity
10492;DHT22;5293;51.464;-2.566;2022-12-18T00:00:32;0.10;99.90
10492;DHT22;5293;51.464;-2.566;2022-12-18T00:03:00;0.00;99.90
10492;DHT22;5293;51.464;-2.566;2022-12-18T00:05:29;0.00;99.90
10492;DHT22;5293;51.464;-2.566;2022-12-18T00:07:54;0.00;99.90
10492;DHT22;5293;51.464;-2.566;2022-12-18T00:10:20;0.00;99.90
10492;DHT22;5293;51.464;-2.566;2022-12-18T00:12:46;0.00;99.90
10492;DHT22;5293;51.464;-2.566;2022-12-18T00:15:11;0.10;99.90
10492;DHT22;5293;51.464;-2.566;2022-12-18T00:17:37;-0.10;99.90
10492;DHT22;5293;51.464;-2.566;2022-12-18T00:20:03;-0.10;99.90
10492;DHT22;5293;51.464;-2.566;2022-12-18T00:22:29;0.00;99.90
10492;DHT22;5293;51.464;-2.566;2022-12-18T00:24:54;0.00;99.90
10492;DHT22;5293;51.464;-2.566;2022-12-18T00:27:20;0.00;99.90
10492;DHT22;5293;51.464;-2.566;2022-12-18T00:29:45;0.00;99.90
10492;DHT22;5293;51.464;-2.566;2022-12-18T00:32:11;0.00;99.90
10492;DHT22;5293;51.464;-2.566;2022-12-18T00:34:37;0.10;99.90
10492;DHT22;5293;51.464;-2.566;2022-12-18T00:37:02;0.10;99.90
10492;DHT22;5293;51.464;-2.566;2022-12-18T00:39:28;0.10;99.90
10492;DHT22;5293;51.464;-2.566;2022-12-18T00:41:54;0.10;99.90
10492;DHT22;5293;51.464;-2.566;2022-12-18T00:44:58;0.10;99.90
10492;DHT22;5293;51.464;-2.566;2022-12-18T00:47:23;0.20;99.90
10492;DHT22;5293;51.464;-2.566;2022-12-18T00:49:49;0.20;99.90
10492;DHT22;5293;51.464;-2.566;2022-12-18T00:52:14;0.30;99.90
10492;DHT22;5293;51.464;-2.566;2022-12-18T00:54:40;0.30;99.90
10492;DHT22;5293;51.464;-2.566;2022-12-18T00:57:06;0.40;99.90
10492;DHT22;5293;51.464;-2.566;2022-12-18T00:59:31;0.30;99.90
10492;DHT22;5293;51.464;-2.566;2022-12-18T01:01:57;0.30;99.90
10492;DHT22;5293;51.464;-2.566;2022-12-18T01:04:22;0.30;99.90
10492;DHT22;5293;51.464;-2.566;2022-12-18T01:06:48;0.20;99.90
10492;DHT22;5293;51.464;-2.566;2022-12-18T01:09:14;0.30;99.90
10492;DHT22;5293;51.464;-2.566;2022-12-18T01:11:40;0.30;99.90
10492;DHT22;5293;51.464;-2.566;2022-12-18T01:14:05;0.30;99.90
10492;DHT22;5293;51.464;-2.566;2022-12-18T01:16:31;0.20;99.90
10492;DHT22;5293;51.464;-2.566;2022-12-18T01:18:57;0.20;99.90
10492;DHT22;5293;51.464;-2.566;2022-12-18T01:21:23;0.10;99.90
10492;DHT22;5293;51.464;-2.566;2022-12-18T01:23:56;0.10;99.90
10492;DHT22;5293;51.464;-2.566;2022-12-18T01:26:22;0.20;99.90
10492;DHT22;5293;51.464;-2.566;2022-12-18T01:28:48;0.00;99.90
10492;DHT22;5293;51.464;-2.566;2022-12-18T01:31:22;-0.10;99.90
10492;DHT22;5293;51.464;-2.566;2022-12-18T01:33:49;0.10;99.90
10492;DHT22;5293;51.464;-2.566;2022-12-18T01:36:36;0.00;99.90
10492;DHT22;5293;51.464;-2.566;2022-12-18T01:39:06;-0.10;99.90
10492;DHT22;5293;51.464;-2.566;2022-12-18T01:41:33;0.00;99.90
10492;DHT22;5293;51.464;-2.566;2022-12-18T01:47:39;0.00;99.90
10492;DHT22;5293;51.464;-2.566;2022-12-18T01:50:15;0.00;99.90
10492;DHT22;5293;51.464;-2.566;2022-12-18T01:52:42;0.00;99.90
10492;DHT22;5293;51.464;-2.566;2022-12-18T01:55:10;0.00;99.90
10492;DHT22;5293;51.464;-2.566;2022-12-18T01:57:37;0.00;99.90
10492;DHT22;5293;51.464;-2.566;2022-12-18T02:00:13;0.00;99.90
10492;DHT22;5293;51.464;-2.566;2022-12-18T02:02:41;0.00;99.90
10492;DHT22;5293;51.464;-2.566;2022-12-18T02:05:07;0.10;99.90
10492;DHT22;5293;51.464;-2.566;2022-12-18T02:07:45;0.10;99.90
10492;DHT22;5293;51.464;-2.566;2022-12-18T02:18:59;0.10;99.90
10492;DHT22;5293;51.464;-2.566;2022-12-18T02:24:21;0.00;99.90
10492;DHT22;5293;51.464;-2.566;2022-12-18T02:26:59;0.00;99.90
10492;DHT22;5293;51.464;-2.566;2022-12-18T02:32:00;0.10;99.90
10492;DHT22;5293;51.464;-2.566;2022-12-18T02:34:30;0.10;99.90
10492;DHT22;5293;51.464;-2.566;2022-12-18T02:36:58;0.20;99.90
10492;DHT22;5293;51.464;-2.566;2022-12-18T02:39:26;0.20;99.90
10492;DHT22;5293;51.464;-2.566;2022-12-18T02:41:53;0.20;99.90
10492;DHT22;5293;51.464;-2.566;2022-12-18T02:44:18;0.30;99.90
10492;DHT22;5293;51.464;-2.566;2022-12-18T02:46:48;0.30;99.90
10492;DHT22;5293;51.464;-2.566;2022-12-18T02:49:21;0.40;99.90
10492;DHT22;5293;51.464;-2.566;2022-12-18T02:51:55;0.30;99.90
10492;DHT22;5293;51.464;-2.566;2022-12-18T02:54:42;0.30;99.90
10492;DHT22;5293;51.464;-2.566;2022-12-18T02:57:39;0.40;99.90
10492;DHT22;5293;51.464;-2.566;2022-12-18T03:00:18;0.50;99.90
10492;DHT22;5293;51.464;-2.566;2022-12-18T03:05:30;0.40;99.90
10492;DHT22;5293;51.464;-2.566;2022-12-18T03:08:07;0.40;99.90
10492;DHT22;5293;51.464;-2.566;2022-12-18T03:10:40;0.50;99.90
10492;DHT22;5293;51.464;-2.566;2022-12-18T03:13:14;0.50;99.90
10492;DHT22;5293;51.464;-2.566;2022-12-18T03:15:45;0.50;99.90
10492;DHT22;5293;51.464;-2.566;2022-12-18T03:18:18;0.50;99.90
10492;DHT22;5293;51.464;-2.566;2022-12-18T03:20:49;0.60;99.90
10492;DHT22;5293;51.464;-2.566;2022-12-18T03:23:21;0.60;99.90
10492;DHT22;5293;51.464;-2.566;2022-12-18T03:25:49;0.70;99.90
10492;DHT22;5293;51.464;-2.566;2022-12-18T03:28:21;0.70;99.90
10492;DHT22;5293;51.464;-2.566;2022-12-18T03:30:49;0.80;99.90
10492;DHT22;5293;51.464;-2.566;2022-12-18T03:33:21;0.90;99.90
10492;DHT22;5293;51.464;-2.566;2022-12-18T03:35:49;1.00;99.90
10492;DHT22;5293;51.464;-2.566;2022-12-18T03:38:15;1.10;99.90
10492;DHT22;5293;51.464;-2.566;2022-12-18T03:46:48;1.40;99.90
10492;DHT22;5293;51.464;-2.566;2022-12-18T03:49:28;1.40;99.90
10492;DHT22;5293;51.464;-2.566;2022-12-18T03:52:08;1.40;99.90
10492;DHT22;5293;51.464;-2.566;2022-12-18T03:54:35;1.40;99.90
10492;DHT22;5293;51.464;-2.566;2022-12-18T03:57:07;1.50;99.90
10492;DHT22;5293;51.464;-2.566;2022-12-18T03:59:35;1.60;99.90
10492;DHT22;5293;51.464;-2.566;2022-12-18T04:02:03;1.60;99.90
10492;DHT22;5293;51.464;-2.566;2022-12-18T04:04:31;1.60;99.90
10492;DHT22;5293;51.464;-2.566;2022-12-18T04:06:57;1.60;99.90
10492;DHT22;5293;51.464;-2.566;2022-12-18T04:09:24;1.60;99.90
10492;DHT22;5293;51.464;-2.566;2022-12-18T04:11:51;1.60;99.90
10492;DHT22;5293;51.464;-2.566;2022-12-18T04:14:17;1.70;99.90
10492;DHT22;5293;51.464;-2.566;2022-12-18T04:16:43;1.70;99.90
10492;DHT22;5293;51.464;-2.566;2022-12-18T04:19:09;1.70;99.90
10492;DHT22;5293;51.464;-2.566;2022-12-18T04:21:34;1.80;99.90
10492;DHT22;5293;51.464;-2.566;2022-12-18T04:24:00;1.80;99.90
10492;DHT22;5293;51.464;-2.566;2022-12-18T04:26:25;1.80;99.90
10492;DHT22;5293;51.464;-2.566;2022-12-18T04:28:51;1.90;99.90
10492;DHT22;5293;51.464;-2.566;2022-12-18T04:31:17;2.00;99.90
10492;DHT22;5293;51.464;-2.566;2022-12-18T04:33:42;2.00;99.90
10492;DHT22;5293;51.464;-2.566;2022-12-18T04:36:08;2.10;99.90
10492;DHT22;5293;51.464;-2.566;2022-12-18T04:38:34;2.10;99.90
10492;DHT22;5293;51.464;-2.566;2022-12-18T04:40:59;2.20;99.90
10492;DHT22;5293;51.464;-2.566;2022-12-18T04:43:25;2.20;99.90
10492;DHT22;5293;51.464;-2.566;2022-12-18T04:45:51;2.20;99.90
10492;DHT22;5293;51.464;-2.566;2022-12-18T04:48:16;2.20;99.90
10492;DHT22;5293;51.464;-2.566;2022-12-18T04:50:42;2.20;99.90
10492;DHT22;5293;51.464;-2.566;2022-12-18T04:53:08;2.20;99.90
10492;DHT22;5293;51.464;-2.566;2022-12-18T04:55:33;2.20;99.90
10492;DHT22;5293;51.464;-2.566;2022-12-18T04:57:59;2.40;99.90
10492;DHT22;5293;51.464;-2.566;2022-12-18T05:00:24;2.30;99.90
10492;DHT22;5293;51.464;-2.566;2022-12-18T05:02:50;2.30;99.90
10492;DHT22;5293;51.464;-2.566;2022-12-18T05:05:16;2.30;99.90
10492;DHT22;5293;51.464;-2.566;2022-12-18T05:07:41;2.30;99.90
10492;DHT22;5293;51.464;-2.566;2022-12-18T05:10:08;2.20;99.90
10492;DHT22;5293;51.464;-2.566;2022-12-18T05:12:33;2.20;99.90
10492;DHT22;5293;51.464;-2.566;2022-12-18T05:15:19;2.30;99.90
10492;DHT22;5293;51.464;-2.566;2022-12-18T05:17:45;2.30;99.90
10492;DHT22;5293;51.464;-2.566;2022-12-18T05:20:10;2.20;99.90
10492;DHT22;5293;51.464;-2.566;2022-12-18T05:22:36;2.40;99.90
10492;DHT22;5293;51.464;-2.566;2022-12-18T05:25:01;2.40;99.90
10492;DHT22;5293;51.464;-2.566;2022-12-18T05:27:27;2.50;99.90
10492;DHT22;5293;51.464;-2.566;2022-12-18T05:29:53;2.40;99.90
10492;DHT22;5293;51.464;-2.566;2022-12-18T05:32:18;2.50;99.90
10492;DHT22;5293;51.464;-2.566;2022-12-18T05:34:44;2.40;99.90
10492;DHT22;5293;51.464;-2.566;2022-12-18T05:37:10;2.40;99.90
10492;DHT22;5293;51.464;-2.566;2022-12-18T05:39:35;2.50;99.90
10492;DHT22;5293;51.464;-2.566;2022-12-18T05:42:01;2.50;99.90
10492;DHT22;5293;51.464;-2.566;2022-12-18T05:44:26;2.50;99.90
10492;DHT22;5293;51.464;-2.566;2022-12-18T05:46:52;2.50;99.90
10492;DHT22;5293;51.464;-2.566;2022-12-18T05:49:18;2.50;99.90
10492;DHT22;5293;51.464;-2.566;2022-12-18T05:51:43;2.50;99.90
10492;DHT22;5293;51.464;-2.566;2022-12-18T05:54:09;2.60;99.90
10492;DHT22;5293;51.464;-2.566;2022-12-18T05:56:35;2.50;99.90
10492;DHT22;5293;51.464;-2.566;2022-12-18T05:59:00;2.60;99.90
10492;DHT22;5293;51.464;-2.566;2022-12-18T06:01:26;2.50;99.90
10492;DHT22;5293;51.464;-2.566;2022-12-18T06:03:53;2.70;99.90
10492;DHT22;5293;51.464;-2.566;2022-12-18T06:06:27;2.60;99.90
10492;DHT22;5293;51.464;-2.566;2022-12-18T06:08:55;2.60;99.90
10492;DHT22;5293;51.464;-2.566;2022-12-18T06:11:24;2.60;99.90
10492;DHT22;5293;51.464;-2.566;2022-12-18T06:13:55;2.70;99.90
10492;DHT22;5293;51.464;-2.566;2022-12-18T06:16:21;2.70;99.90
10492;DHT22;5293;51.464;-2.566;2022-12-18T06:18:47;2.80;99.90
10492;DHT22;5293;51.464;-2.566;2022-12-18T06:21:12;2.70;99.90
10492;DHT22;5293;51.464;-2.566;2022-12-18T06:23:38;2.70;99.90
10492;DHT22;5293;51.464;-2.566;2022-12-18T06:26:05;2.70;99.90
10492;DHT22;5293;51.464;-2.566;2022-12-18T06:28:31;2.70;99.90
10492;DHT22;5293;51.464;-2.566;2022-12-18T06:30:57;2.70;99.90
10492;DHT22;5293;51.464;-2.566;2022-12-18T06:33:26;2.70;99.90
10492;DHT22;5293;51.464;-2.566;2022-12-18T06:35:52;2.80;99.90
10492;DHT22;5293;51.464;-2.566;2022-12-18T06:38:18;2.80;99.90
10492;DHT22;5293;51.464;-2.566;2022-12-18T06:40:43;2.70;99.90
10492;DHT22;5293;51.464;-2.566;2022-12-18T06:43:09;2.80;99.90
10492;DHT22;5293;51.464;-2.566;2022-12-18T06:45:34;2.90;99.90
10492;DHT22;5293;51.464;-2.566;2022-12-18T06:48:00;2.80;99.90
10492;DHT22;5293;51.464;-2.566;2022-12-18T06:50:32;2.80;99.90
10492;DHT22;5293;51.464;-2.566;2022-12-18T06:52:58;2.80;99.90
10492;DHT22;5293;51.464;-2.566;2022-12-18T06:55:24;2.90;99.90
10492;DHT22;5293;51.464;-2.566;2022-12-18T06:57:50;2.90;99.90
10492;DHT22;5293;51.464;-2.566;2022-12-18T07:00:16;2.80;99.90
10492;DHT22;5293;51.464;-2.566;2022-12-18T07:02:41;2.90;99.90
10492;DHT22;5293;51.464;-2.566;2022-12-18T07:05:07;2.80;99.90
10492;DHT22;5293;51.464;-2.566;2022-12-18T07:07:34;2.80;99.90
10492;DHT22;5293;51.464;-2.566;2022-12-18T07:10:00;2.80;99.90
10492;DHT22;5293;51.464;-2.566;2022-12-18T07:12:27;2.90;99.90
10492;DHT22;5293;51.464;-2.566;2022-12-18T07:14:52;2.90;99.90
10492;DHT22;5293;51.464;-2.566;2022-12-18T07:17:18;2.90;99.90
10492;DHT22;5293;51.464;-2.566;2022-12-18T07:19:44;2.90;99.90
10492;DHT22;5293;51.464;-2.566;2022-12-18T07:22:09;2.90;99.90
10492;DHT22;5293;51.464;-2.566;2022-12-18T07:24:35;2.90;99.90
10492;DHT22;5293;51.464;-2.566;2022-12-18T07:27:01;2.90;99.90
10492;DHT22;5293;51.464;-2.566;2022-12-18T07:29:26;3.00;99.90
10492;DHT22;5293;51.464;-2.566;2022-12-18T07:31:52;3.00;99.90
10492;DHT22;5293;51.464;-2.566;2022-12-18T07:34:17;3.00;99.90
10492;DHT22;5293;51.464;-2.566;2022-12-18T07:36:43;3.00;99.90
10492;DHT22;5293;51.464;-2.566;2022-12-18T07:39:10;3.00;99.90
10492;DHT22;5293;51.464;-2.566;2022-12-18T07:41:36;3.00;99.90
10492;DHT22;5293;51.464;-2.566;2022-12-18T07:44:02;3.10;99.90
10492;DHT22;5293;51.464;-2.566;2022-12-18T07:46:27;3.10;99.90
10492;DHT22;5293;51.464;-2.566;2022-12-18T07:48:53;3.10;99.90
10492;DHT22;5293;51.464;-2.566;2022-12-18T07:51:19;3.10;99.90
10492;DHT22;5293;51.464;-2.566;2022-12-18T07:53:45;3.10;99.90
10492;DHT22;5293;51.464;-2.566;2022-12-18T07:56:12;3.10;99.90
10492;DHT22;5293;51.464;-2.566;2022-12-18T07:58:38;3.20;99.90
10492;DHT22;5293;51.464;-2.566;2022-12-18T08:01:06;3.20;99.90
10492;DHT22;5293;51.464;-2.566;2022-12-18T08:03:32;3.20;99.90
10492;DHT22;5293;51.464;-2.566;2022-12-18T08:06:02;3.30;99.90
10492;DHT22;5293;51.464;-2.566;2022-12-18T08:08:29;3.20;99.90
10492;DHT22;5293;51.464;-2.566;2022-12-18T08:10:55;3.30;99.90
10492;DHT22;5293;51.464;-2.566;2022-12-18T08:13:21;3.30;99.90
10492;DHT22;5293;51.464;-2.566;2022-12-18T08:15:54;3.30;99.90
10492;DHT22;5293;51.464;-2.566;2022-12-18T08:18:20;3.20;99.90
10492;DHT22;5293;51.464;-2.566;2022-12-18T08:20:45;3.30;99.90
10492;DHT22;5293;51.464;-2.566;2022-12-18T08:23:11;3.30;99.90
10492;DHT22;5293;51.464;-2.566;2022-12-18T08:25:37;3.30;99.90
10492;DHT22;5293;51.464;-2.566;2022-12-18T08:28:02;3.20;99.90
10492;DHT22;5293;51.464;-2.566;2022-12-18T08:30:28;3.30;99.90
10492;DHT22;5293;51.464;-2.566;2022-12-18T08:32:54;3.30;99.90
10492;DHT22;5293;51.464;-2.566;2022-12-18T08:35:19;3.30;99.90
10492;DHT22;5293;51.464;-2.566;2022-12-18T08:37:45;3.30;99.90
10492;DHT22;5293;51.464;-2.566;2022-12-18T08:40:11;3.40;99.90
10492;DHT22;5293;51.464;-2.566;2022-12-18T08:42:38;3.30;99.90
10492;DHT22;5293;51.464;-2.566;2022-12-18T08:45:22;3.30;99.90
10492;DHT22;5293;51.464;-2.566;2022-12-18T08:47:47;3.30;99.90
10492;DHT22;5293;51.464;-2.566;2022-12-18T08:50:13;3.20;99.90
10492;DHT22;5293;51.464;-2.566;2022-12-18T08:52:40;3.30;99.90
10492;DHT22;5293;51.464;-2.566;2022-12-18T08:55:06;3.30;99.90
10492;DHT22;5293;51.464;-2.566;2022-12-18T08:57:31;3.30;99.90
10492;DHT22;5293;51.464;-2.566;2022-12-18T08:59:57;3.40;99.90
10492;DHT22;5293;51.464;-2.566;2022-12-18T09:02:23;3.40;99.90
10492;DHT22;5293;51.464;-2.566;2022-12-18T09:04:48;3.40;99.90
10492;DHT22;5293;51.464;-2.566;2022-12-18T09:07:14;3.30;99.90
10492;DHT22;5293;51.464;-2.566;2022-12-18T09:09:40;3.30;99.90
10492;DHT22;5293;51.464;-2.566;2022-12-18T09:12:05;3.40;99.90
10492;DHT22;5293;51.464;-2.566;2022-12-18T09:14:31;3.40;99.90
10492;DHT22;5293;51.464;-2.566;2022-12-18T09:16:57;3.30;99.90
10492;DHT22;5293;51.464;-2.566;2022-12-18T09:19:22;3.30;99.90
10492;DHT22;5293;51.464;-2.566;2022-12-18T09:21:48;3.40;99.90
10492;DHT22;5293;51.464;-2.566;2022-12-18T09:24:14;3.40;99.90
10492;DHT22;5293;51.464;-2.566;2022-12-18T09:26:40;3.50;99.90
10492;DHT22;5293;51.464;-2.566;2022-12-18T09:29:05;3.40;99.90
10492;DHT22;5293;51.464;-2.566;2022-12-18T09:31:33;3.50;99.90
10492;DHT22;5293;51.464;-2.566;2022-12-18T09:33:59;3.50;99.90
10492;DHT22;5293;51.464;-2.566;2022-12-18T09:36:24;3.50;99.90
10492;DHT22;5293;51.464;-2.566;2022-12-18T09:38:50;3.50;99.90
10492;DHT22;5293;51.464;-2.566;2022-12-18T09:49:47;3.50;99.90
10492;DHT22;5293;51.464;-2.566;2022-12-18T09:52:32;3.60;99.90
10492;DHT22;5293;51.464;-2.566;2022-12-18T09:57:53;3.60;99.90
10492;DHT22;5293;51.464;-2.566;2022-12-18T10:00:22;3.60;99.90
10492;DHT22;5293;51.464;-2.566;2022-12-18T10:02:51;3.60;99.90
10492;DHT22;5293;51.464;-2.566;2022-12-18T10:05:39;3.70;99.90
10492;DHT22;5293;51.464;-2.566;2022-12-18T10:14:20;3.60;99.90
10492;DHT22;5293;51.464;-2.566;2022-12-18T10:17:02;3.60;99.90
10492;DHT22;5293;51.464;-2.566;2022-12-18T10:19:53;3.60;99.90
10492;DHT22;5293;51.464;-2.566;2022-12-18T10:23:41;3.60;99.90
10492;DHT22;5293;51.464;-2.566;2022-12-18T10:28:16;3.60;99.90
10492;DHT22;5293;51.464;-2.566;2022-12-18T10:30:43;3.60;99.90
10492;DHT22;5293;51.464;-2.566;2022-12-18T10:33:18;3.60;99.90
10492;DHT22;5293;51.464;-2.566;2022-12-18T10:35:45;3.70;99.90
10492;DHT22;5293;51.464;-2.566;2022-12-18T10:40:58;3.70;99.90
10492;DHT22;5293;51.464;-2.566;2022-12-18T10:51:23;3.80;99.90
10492;DHT22;5293;51.464;-2.566;2022-12-18T10:54:14;3.80;99.90
10492;DHT22;5293;51.464;-2.566;2022-12-18T10:56:40;3.80;99.90
10492;DHT22;5293;51.464;-2.566;2022-12-18T10:59:09;3.80;99.90
10492;DHT22;5293;51.464;-2.566;2022-12-18T11:01:52;4.00;99.90
10492;DHT22;5293;51.464;-2.566;2022-12-18T11:09:27;4.00;99.90
10492;DHT22;5293;51.464;-2.566;2022-12-18T11:11:55;4.00;99.90
10492;DHT22;5293;51.464;-2.566;2022-12-18T11:16:51;4.00;99.90
10492;DHT22;5293;51.464;-2.566;2022-12-18T11:19:34;3.90;99.90
10492;DHT22;5293;51.464;-2.566;2022-12-18T11:22:03;4.00;99.90
10492;DHT22;5293;51.464;-2.566;2022-12-18T11:24:43;3.90;99.90
10492;DHT22;5293;51.464;-2.566;2022-12-18T11:27:17;3.90;99.90
10492;DHT22;5293;51.464;-2.566;2022-12-18T11:29:44;4.00;99.90
10492;DHT22;5293;51.464;-2.566;2022-12-18T11:37:30;4.00;99.90
10492;DHT22;5293;51.464;-2.566;2022-12-18T11:40:01;4.10;99.90
10492;DHT22;5293;51.464;-2.566;2022-12-18T11:42:34;4.10;99.90
10492;DHT22;5293;51.464;-2.566;2022-12-18T11:47:45;4.10;99.90
10492;DHT22;5293;51.464;-2.566;2022-12-18T11:50:20;4.10;99.90
10492;DHT22;5293;51.464;-2.566;2022-12-18T11:52:47;4.10;99.90
10492;DHT22;5293;51.464;-2.566;2022-12-18T11:55:15;4.00;99.90
10492;DHT22;5293;51.464;-2.566;2022-12-18T11:57:51;4.10;99.90
10492;DHT22;5293;51.464;-2.566;2022-12-18T12:00:18;4.10;99.90
10492;DHT22;5293;51.464;-2.566;2022-12-18T12:08:38;4.20;99.90
10492;DHT22;5293;51.464;-2.566;2022-12-18T12:11:23;4.30;99.90
10492;DHT22;5293;51.464;-2.566;2022-12-18T12:14:04;4.20;99.90
10492;DHT22;5293;51.464;-2.566;2022-12-18T12:19:55;4.20;99.90
10492;DHT22;5293;51.464;-2.566;2022-12-18T12:22:47;4.30;99.90
10492;DHT22;5293;51.464;-2.566;2022-12-18T12:28:28;4.30;99.90
10492;DHT22;5293;51.464;-2.566;2022-12-18T12:39:16;4.60;99.90
10492;DHT22;5293;51.464;-2.566;2022-12-18T12:41:44;4.60;99.90
10492;DHT22;5293;51.464;-2.566;2022-12-18T12:44:38;4.70;99.90
10492;DHT22;5293;51.464;-2.566;2022-12-18T12:47:14;4.80;99.90
10492;DHT22;5293;51.464;-2.566;2022-12-18T12:49:44;4.70;99.90
10492;DHT22;5293;51.464;-2.566;2022-12-18T12:52:37;4.80;99.90
10492;DHT22;5293;51.464;-2.566;2022-12-18T12:55:04;4.80;99.90
10492;DHT22;5293;51.464;-2.566;2022-12-18T12:57:34;4.90;99.90
10492;DHT22;5293;51.464;-2.566;2022-12-18T13:00:18;5.00;99.90
10492;DHT22;5293;51.464;-2.566;2022-12-18T13:02:56;5.10;99.90
10492;DHT22;5293;51.464;-2.566;2022-12-18T13:08:10;5.10;99.90
10492;DHT22;5293;51.464;-2.566;2022-12-18T13:10:42;5.10;99.90
10492;DHT22;5293;51.464;-2.566;2022-12-18T13:13:15;5.10;99.90
10492;DHT22;5293;51.464;-2.566;2022-12-18T13:15:45;5.20;99.90
10492;DHT22;5293;51.464;-2.566;2022-12-18T13:18:22;5.30;99.90
10492;DHT22;5293;51.464;-2.566;2022-12-18T13:25:56;5.40;99.90
10492;DHT22;5293;51.464;-2.566;2022-12-18T13:34:27;5.40;99.90
10492;DHT22;5293;51.464;-2.566;2022-12-18T13:39:40;5.50;99.90
10492;DHT22;5293;51.464;-2.566;2022-12-18T13:44:39;5.50;99.90
10492;DHT22;5293;51.464;-2.566;2022-12-18T13:47:38;5.50;99.90
10492;DHT22;5293;51.464;-2.566;2022-12-18T13:50:22;5.60;99.90
10492;DHT22;5293;51.464;-2.566;2022-12-18T13:52:48;5.60;99.90
10492;DHT22;5293;51.464;-2.566;2022-12-18T13:55:20;5.70;99.90
10492;DHT22;5293;51.464;-2.566;2022-12-18T13:57:46;5.70;99.90
10492;DHT22;5293;51.464;-2.566;2022-12-18T14:00:32;5.80;99.90
10492;DHT22;5293;51.464;-2.566;2022-12-18T14:02:59;5.70;99.90
10492;DHT22;5293;51.464;-2.566;2022-12-18T14:05:31;5.70;99.90
10492;DHT22;5293;51.464;-2.566;2022-12-18T14:08:12;5.70;99.90
10492;DHT22;5293;51.464;-2.566;2022-12-18T14:10:44;5.80;99.90
10492;DHT22;5293;51.464;-2.566;2022-12-18T14:13:15;5.90;99.90
10492;DHT22;5293;51.464;-2.566;2022-12-18T14:15:45;6.00;99.90
10492;DHT22;5293;51.464;-2.566;2022-12-18T14:20:47;6.10;99.90
10492;DHT22;5293;51.464;-2.566;2022-12-18T14:23:33;6.10;99.90
10492;DHT22;5293;51.464;-2.566;2022-12-18T14:26:01;6.20;99.90
10492;DHT22;5293;51.464;-2.566;2022-12-18T14:28:27;6.20;99.90
10492;DHT22;5293;51.464;-2.566;2022-12-18T14:30:53;6.30;99.90
10492;DHT22;5293;51.464;-2.566;2022-12-18T14:33:27;6.30;99.90
10492;DHT22;5293;51.464;-2.566;2022-12-18T14:35:58;6.60;99.90
10492;DHT22;5293;51.464;-2.566;2022-12-18T14:38:47;6.60;99.90
10492;DHT22;5293;51.464;-2.566;2022-12-18T14:41:15;6.80;99.90
10492;DHT22;5293;51.464;-2.566;2022-12-18T14:43:43;7.00;99.90
10492;DHT22;5293;51.464;-2.566;2022-12-18T14:46:29;7.10;99.90
10492;DHT22;5293;51.464;-2.566;2022-12-18T14:48:56;7.20;99.90
10492;DHT22;5293;51.464;-2.566;2022-12-18T14:51:24;7.30;99.90
10492;DHT22;5293;51.464;-2.566;2022-12-18T14:53:57;7.40;99.90
10492;DHT22;5293;51.464;-2.566;2022-12-18T14:56:32;7.50;99.90
10492;DHT22;5293;51.464;-2.566;2022-12-18T14:59:04;7.60;99.90
10492;DHT22;5293;51.464;-2.566;2022-12-18T15:01:45;7.60;99.90
10492;DHT22;5293;51.464;-2.566;2022-12-18T15:04:30;7.60;99.90
10492;DHT22;5293;51.464;-2.566;2022-12-18T15:07:12;7.70;99.90
10492;DHT22;5293;51.464;-2.566;2022-12-18T15:09:40;7.80;99.90
10492;DHT22;5293;51.464;-2.566;2022-12-18T15:12:28;7.80;99.90
10492;DHT22;5293;51.464;-2.566;2022-12-18T15:14:58;7.80;99.90
10492;DHT22;5293;51.464;-2.566;2022-12-18T15:17:24;7.80;99.90
10492;DHT22;5293;51.464;-2.566;2022-12-18T15:19:52;7.90;99.90
10492;DHT22;5293;51.464;-2.566;2022-12-18T15:22:21;7.90;99.90
10492;DHT22;5293;51.464;-2.566;2022-12-18T15:24:48;7.90;99.90
10492;DHT22;5293;51.464;-2.566;2022-12-18T15:32:39;8.00;99.90
10492;DHT22;5293;51.464;-2.566;2022-12-18T15:37:40;8.00;99.90
10492;DHT22;5293;51.464;-2.566;2022-12-18T15:40:07;8.00;99.90
10492;DHT22;5293;51.464;-2.566;2022-12-18T15:42:33;8.10;99.90
10492;DHT22;5293;51.464;-2.566;2022-12-18T15:45:17;8.10;99.90
10492;DHT22;5293;51.464;-2.566;2022-12-18T15:47:43;8.10;99.90
10492;DHT22;5293;51.464;-2.566;2022-12-18T15:50:10;8.10;99.90
10492;DHT22;5293;51.464;-2.566;2022-12-18T15:52:46;8.10;99.90
10492;DHT22;5293;51.464;-2.566;2022-12-18T15:55:21;8.10;99.90
10492;DHT22;5293;51.464;-2.566;2022-12-18T15:58:07;8.10;99.90
10492;DHT22;5293;51.464;-2.566;2022-12-18T16:00:35;8.10;99.90
10492;DHT22;5293;51.464;-2.566;2022-12-18T16:03:02;8.10;99.90
10492;DHT22;5293;51.464;-2.566;2022-12-18T16:05:28;8.10;99.90
10492;DHT22;5293;51.464;-2.566;2022-12-18T16:07:54;8.10;99.90
10492;DHT22;5293;51.464;-2.566;2022-12-18T16:10:20;8.10;99.90
10492;DHT22;5293;51.464;-2.566;2022-12-18T16:12:46;8.10;99.90
10492;DHT22;5293;51.464;-2.566;2022-12-18T16:15:15;8.10;99.90
10492;DHT22;5293;51.464;-2.566;2022-12-18T16:17:42;8.20;99.90
10492;DHT22;5293;51.464;-2.566;2022-12-18T16:20:16;8.20;99.90
10492;DHT22;5293;51.464;-2.566;2022-12-18T16:22:43;8.20;99.90
10492;DHT22;5293;51.464;-2.566;2022-12-18T16:25:30;8.20;99.90
10492;DHT22;5293;51.464;-2.566;2022-12-18T16:27:56;8.20;99.90
10492;DHT22;5293;51.464;-2.566;2022-12-18T16:30:28;8.30;99.90
10492;DHT22;5293;51.464;-2.566;2022-12-18T16:32:56;8.40;99.90
10492;DHT22;5293;51.464;-2.566;2022-12-18T16:35:23;8.40;99.90
10492;DHT22;5293;51.464;-2.566;2022-12-18T16:37:49;8.30;99.90
10492;DHT22;5293;51.464;-2.566;2022-12-18T16:40:16;8.40;99.90
10492;DHT22;5293;51.464;-2.566;2022-12-18T16:42:44;8.30;99.90
10492;DHT22;5293;51.464;-2.566;2022-12-18T16:45:12;8.40;99.90
10492;DHT22;5293;51.464;-2.566;2022-12-18T16:47:38;8.40;99.90
10492;DHT22;5293;51.464;-2.566;2022-12-18T16:50:05;8.30;99.90
10492;DHT22;5293;51.464;-2.566;2022-12-18T16:52:30;8.30;99.90
10492;DHT22;5293;51.464;-2.566;2022-12-18T16:54:56;8.40;99.90
10492;DHT22;5293;51.464;-2.566;2022-12-18T16:57:22;8.40;99.90
10492;DHT22;5293;51.464;-2.566;2022-12-18T16:59:48;8.40;99.90
10492;DHT22;5293;51.464;-2.566;2022-12-18T17:02:23;8.50;99.90
10492;DHT22;5293;51.464;-2.566;2022-12-18T17:04:49;8.40;99.90
10492;DHT22;5293;51.464;-2.566;2022-12-18T17:07:15;8.50;99.90
10492;DHT22;5293;51.464;-2.566;2022-12-18T17:09:41;8.40;99.90
10492;DHT22;5293;51.464;-2.566;2022-12-18T17:12:07;8.50;99.90
10492;DHT22;5293;51.464;-2.566;2022-12-18T17:14:33;8.50;99.90
10492;DHT22;5293;51.464;-2.566;2022-12-18T17:16:59;8.50;99.90
10492;DHT22;5293;51.464;-2.566;2022-12-18T17:19:25;8.50;99.90
10492;DHT22;5293;51.464;-2.566;2022-12-18T17:21:52;8.60;99.90
10492;DHT22;5293;51.464;-2.566;2022-12-18T17:24:18;8.50;99.90
10492;DHT22;5293;51.464;-2.566;2022-12-18T17:26:44;8.60;99.90
10492;DHT22;5293;51.464;-2.566;2022-12-18T17:29:14;8.60;99.90
10492;DHT22;5293;51.464;-2.566;2022-12-18T17:31:40;8.60;99.90
10492;DHT22;5293;51.464;-2.566;2022-12-18T17:34:06;8.60;99.90
10492;DHT22;5293;51.464;-2.566;2022-12-18T17:36:32;8.70;99.90
10492;DHT22;5293;51.464;-2.566;2022-12-18T17:38:59;8.80;99.90
10492;DHT22;5293;51.464;-2.566;2022-12-18T17:41:26;8.80;99.90
10492;DHT22;5293;51.464;-2.566;2022-12-18T17:43:56;8.80;99.90
10492;DHT22;5293;51.464;-2.566;2022-12-18T17:46:23;8.90;99.90
10492;DHT22;5293;51.464;-2.566;2022-12-18T17:48:48;9.00;99.90
10492;DHT22;5293;51.464;-2.566;2022-12-18T17:51:15;9.00;99.90
10492;DHT22;5293;51.464;-2.566;2022-12-18T17:53:41;9.10;99.90
10492;DHT22;5293;51.464;-2.566;2022-12-18T17:56:08;9.10;99.90
10492;DHT22;5293;51.464;-2.566;2022-12-18T17:58:36;9.10;99.90
10492;DHT22;5293;51.464;-2.566;2022-12-18T18:01:03;9.10;99.90